Time;durP1;ratioP1;P1;durP2;ratioP2;P2;SDS_P1;SDS_P2;PMS_P1;PMS_P2;Temp;Humidity;BMP_temperature;BMP_pressure;BME280_temperature;BME280_humidity;BME280_pressure;Samples;Min_cycle;Max_cycle;Signal;HPM_P1;HPM_P2
2023/02/07 09:42:15;;;;;;;18.30;10.40;;;;;;;-0.36;74.45;101610.95;109598;1276;23706;-35
2023/02/07 09:44:56;;;;;;;19.20;10.70;;;;;;;-0.30;74.48;101607.05;111043;1262;22397;-35
2023/02/07 09:47:24;;;;;;;14.20;8.50;;;;;;;-0.23;74.22;101602.89;111186;1262;22897;-36
2023/02/07 09:49:54;;;;;;;15.20;8.80;;;;;;;-0.27;72.52;101600.07;111659;1262;22190;-36
2023/02/07 09:52:38;;;;;;;12.70;7.60;;;;;;;-0.32;72.19;101597.47;112068;1254;22339;-36
2023/02/07 09:55:05;;;;;;;12.00;8.10;;;;;;;-0.29;71.25;101594.27;112259;1254;22970;-36
2023/02/07 09:57:44;;;;;;;14.30;8.10;;;;;;;-0.25;71.32;101595.52;112210;1254;22414;-36
2023/02/07 10:00:28;;;;;;;15.10;9.10;;;;;;;-0.17;71.64;101594.31;112313;1254;22977;-44
2023/02/07 10:03:21;;;;;;;12.40;8.40;;;;;;;-0.15;71.40;101593.43;112106;1254;22389;-37
2023/02/07 10:06:13;;;;;;;14.80;8.80;;;;;;;-0.11;71.04;101592.79;112377;1254;23561;-45
2023/02/07 10:08:46;;;;;;;12.40;7.90;;;;;;;-0.08;70.27;101584.80;112314;1254;23197;-45
2023/02/07 10:11:24;;;;;;;10.90;7.60;;;;;;;-0.14;69.46;101579.91;112159;1254;22353;-46
2023/02/07 10:14:01;;;;;;;13.00;7.30;;;;;;;-0.14;69.53;101579.58;112316;1254;22384;-46
2023/02/07 10:16:40;;;;;;;14.10;8.10;;;;;;;-0.09;68.94;101579.40;112273;1254;23197;-37
2023/02/07 10:19:34;;;;;;;15.10;7.30;;;;;;;-0.06;69.18;101579.27;111997;1254;23090;-36
2023/02/07 10:22:29;;;;;;;12.40;7.30;;;;;;;-0.03;68.13;101582.21;112363;1250;22472;-37
2023/02/07 10:25:21;;;;;;;10.60;6.50;;;;;;;0.13;68.65;101580.30;112359;1250;22467;-37
2023/02/07 10:28:03;;;;;;;11.80;7.70;;;;;;;0.32;67.84;101578.35;112566;1250;22376;-37
2023/02/07 10:30:31;;;;;;;10.20;6.70;;;;;;;0.31;67.07;101579.82;112381;1250;22383;-36
2023/02/07 10:33:11;;;;;;;12.20;6.70;;;;;;;0.25;66.73;101584.09;112176;1250;22441;-47
2023/02/07 10:35:38;;;;;;;12.60;7.30;;;;;;;0.19;66.44;101581.19;112367;1250;22448;-46
2023/02/07 10:38:17;;;;;;;12.50;8.90;;;;;;;0.39;65.96;101579.46;112325;1250;22424;-46
2023/02/07 10:40:50;;;;;;;16.10;9.60;;;;;;;0.77;65.58;101578.84;112544;1250;22962;-47
2023/02/07 10:43:28;;;;;;;14.00;8.10;;;;;;;1.11;65.41;101579.80;112614;1250;22274;-46
2023/02/07 10:45:59;;;;;;;22.50;11.20;;;;;;;1.19;62.76;101579.45;112493;1250;22569;-37
2023/02/07 10:48:32;;;;;;;25.00;11.30;;;;;;;0.85;62.49;101585.52;112541;1250;22359;-48
2023/02/07 10:51:18;;;;;;;21.20;10.30;;;;;;;0.54;62.35;101590.00;112664;1250;22247;-37
2023/02/07 10:53:59;;;;;;;19.50;10.80;;;;;;;0.27;62.71;101587.48;112638;1250;22382;-38
2023/02/07 10:56:26;;;;;;;18.70;11.10;;;;;;;0.25;63.45;101589.25;112601;1250;23058;-46
2023/02/07 10:58:57;;;;;;;14.60;9.40;;;;;;;0.33;63.09;101582.53;112191;1250;22479;-46
2023/02/07 11:01:26;;;;;;;16.70;10.20;;;;;;;0.27;62.87;101580.28;112477;1250;22303;-47
2023/02/07 11:03:53;;;;;;;18.50;11.20;;;;;;;0.09;63.30;101584.11;112387;1250;22393;-37
2023/02/07 11:06:29;;;;;;;13.40;9.20;;;;;;;-0.06;62.78;101582.02;112526;1250;22755;-37
2023/02/07 11:09:22;;;;;;;14.20;8.00;;;;;;;-0.18;62.46;101583.45;112350;1250;22398;-47
2023/02/07 11:11:51;;;;;;;12.20;7.60;;;;;;;-0.20;62.83;101583.70;112505;1250;23188;-47
2023/02/07 11:14:25;;;;;;;13.20;7.50;;;;;;;0.04;62.69;101579.55;112540;1250;23289;-45
2023/02/07 11:16:53;;;;;;;12.90;7.40;;;;;;;0.67;61.79;101578.59;112560;1250;22416;-45
2023/02/07 11:19:23;;;;;;;17.70;8.60;;;;;;;1.46;60.99;101575.15;112421;1250;22738;-46
2023/02/07 11:21:51;;;;;;;14.30;8.10;;;;;;;2.29;59.66;101576.81;112251;1250;22311;-47
2023/02/07 11:24:24;;;;;;;11.90;7.90;;;;;;;3.15;58.06;101575.40;112514;1250;23184;-49
2023/02/07 11:27:01;;;;;;;13.00;7.70;;;;;;;3.71;56.80;101581.47;112465;1250;22890;-48
2023/02/07 11:29:30;;;;;;;12.60;8.30;;;;;;;3.78;55.59;101581.45;112430;1250;22443;-47
2023/02/07 11:31:58;;;;;;;15.30;8.80;;;;;;;3.25;55.02;101581.06;112563;1250;22465;-46
2023/02/07 11:34:27;;;;;;;14.20;7.90;;;;;;;2.48;56.06;101581.79;112451;1250;23007;-46
2023/02/07 11:36:55;;;;;;;15.10;9.60;;;;;;;1.73;57.51;101585.64;112459;1250;22399;-47
2023/02/07 11:39:22;;;;;;;15.80;9.00;;;;;;;1.08;59.03;101588.27;112463;1250;22215;-47
2023/02/07 11:41:59;;;;;;;16.80;9.60;;;;;;;0.58;60.38;101592.63;112550;1250;22405;-38
2023/02/07 11:44:28;;;;;;;15.40;9.30;;;;;;;0.11;61.83;101595.63;112613;1250;22375;-37
2023/02/07 11:46:58;;;;;;;14.80;9.50;;;;;;;-0.20;62.86;101598.08;112545;1250;23023;-38
2023/02/07 11:49:37;;;;;;;19.00;11.80;;;;;;;-0.44;63.84;101600.33;112654;1250;22234;-37
2023/02/07 11:52:04;;;;;;;21.20;12.00;;;;;;;-0.61;64.80;101601.48;112676;1250;22421;-37
2023/02/07 11:54:31;;;;;;;20.20;11.70;;;;;;;-0.70;65.63;101602.05;112515;1250;22469;-46
2023/02/07 11:57:05;;;;;;;18.80;9.90;;;;;;;-0.76;66.25;101603.86;112760;1250;23183;-46
2023/02/07 11:59:33;;;;;;;16.70;11.30;;;;;;;-0.88;65.92;101610.14;112643;1250;22351;-37
